ENBN/BNN METAR and TAF weather

Enter ICAO airport designator
Station Type Date Time Source
ENBN METAR 2021/05/12 01:50 UTC NOAA

ENBN 120150Z AUTO 21008KT 9999NDV ///////// 09/05 Q1014


Station Type Date Time Source
ENBN Decoded METAR 2021/05/12 01:50 UTC NOAA

Bronnoysund / Bronnoy, Norway (ENBN) 65-28N 012-13E 9M
May 11, 2021 - 09:50 PM EDT / 2021.05.12 0150 UTC
Wind: from the SSW (210 degrees) at 9 MPH (8 KT):0
Temperature: 48 F (9 C)
Dew Point: 41 F (5 C)
Relative Humidity: 75%
Pressure (altimeter): 29.94 in. Hg (1014 hPa)
ob: ENBN 120150Z AUTO 21008KT 9999NDV ///////// 09/05 Q1014
cycle: 2

Station Type Date Time Source
ENBN TAF 2011/03/27 18:12 UTC NOAA

TAF TAF ENBN 261700Z 2618/2718 CNL

Example: see airport list